Time;durP1;ratioP1;P1;durP2;ratioP2;P2;SDS_P1;SDS_P2;PMS_P1;PMS_P2;Temp;Humidity;BMP_temperature;BMP_pressure;BME280_temperature;BME280_humidity;BME280_pressure;Samples;Min_cycle;Max_cycle;Signal;HPM_P1;HPM_P2
2020/12/18 00:01:29;;;;;;;44.53;28.30;;;2.60;99.90;;;;;;5080136;28;20461;-76
2020/12/18 00:03:56;;;;;;;44.43;29.07;;;2.60;99.90;;;;;;5078247;28;20466;-76
2020/12/18 00:06:24;;;;;;;42.90;28.67;;;2.60;99.90;;;;;;5083961;28;20986;-77
2020/12/18 00:08:53;;;;;;;40.57;27.53;;;2.70;99.90;;;;;;5088050;28;20447;-78
2020/12/18 00:11:21;;;;;;;41.10;26.77;;;2.60;99.90;;;;;;5081319;28;21192;-77
2020/12/18 00:13:47;;;;;;;41.47;28.33;;;2.60;99.90;;;;;;5079056;28;20939;-76
2020/12/18 00:16:14;;;;;;;43.33;29.70;;;2.50;99.90;;;;;;5081651;28;21011;-76
2020/12/18 00:18:40;;;;;;;45.43;29.80;;;2.60;99.90;;;;;;5085930;28;20487;-77
2020/12/18 00:21:07;;;;;;;42.47;27.00;;;2.70;99.90;;;;;;5081134;28;20846;-76
2020/12/18 00:23:33;;;;;;;46.87;29.67;;;2.70;99.90;;;;;;5080471;28;20479;-77
2020/12/18 00:26:01;;;;;;;44.13;28.83;;;2.80;99.90;;;;;;5077694;28;20454;-77
2020/12/18 00:28:27;;;;;;;41.67;26.87;;;2.80;99.90;;;;;;5082316;28;20474;-76
2020/12/18 00:30:54;;;;;;;37.83;26.83;;;2.90;99.90;;;;;;5080250;28;20461;-77
2020/12/18 00:33:20;;;;;;;47.73;29.50;;;3.00;99.90;;;;;;5082056;28;20451;-77
2020/12/18 00:35:50;;;;;;;42.47;28.20;;;3.00;99.90;;;;;;5078313;28;20434;-78
2020/12/18 00:38:16;;;;;;;49.17;27.90;;;3.20;99.90;;;;;;5084837;28;20462;-77
2020/12/18 00:40:45;;;;;;;42.10;28.17;;;3.30;99.90;;;;;;5075650;28;20451;-77
2020/12/18 00:43:12;;;;;;;42.67;27.60;;;3.40;99.90;;;;;;5073500;28;20825;-77
2020/12/18 00:45:39;;;;;;;36.57;25.67;;;3.50;99.90;;;;;;5076757;28;20546;-77
2020/12/18 00:48:05;;;;;;;39.13;26.20;;;3.60;99.90;;;;;;5077256;28;20473;-77
2020/12/18 00:50:33;;;;;;;38.20;27.00;;;3.70;99.90;;;;;;5077968;28;20460;-76
2020/12/18 00:52:59;;;;;;;35.90;26.13;;;3.60;99.90;;;;;;5072593;28;20457;-76
2020/12/18 00:55:26;;;;;;;35.60;25.73;;;3.70;99.90;;;;;;5082348;28;20468;-77
2020/12/18 00:57:52;;;;;;;31.93;24.27;;;3.70;99.90;;;;;;5080497;28;20466;-76
2020/12/18 01:00:20;;;;;;;35.00;25.80;;;3.80;99.90;;;;;;5075230;28;20515;-76
2020/12/18 01:02:47;;;;;;;37.00;25.73;;;3.80;99.90;;;;;;5075358;28;20446;-77
2020/12/18 01:05:14;;;;;;;33.27;23.83;;;3.90;99.90;;;;;;5073658;28;20880;-76
2020/12/18 01:07:40;;;;;;;35.90;25.70;;;3.90;99.90;;;;;;5075619;28;21152;-76
2020/12/18 01:10:07;;;;;;;32.00;24.33;;;3.90;99.90;;;;;;5078845;28;20490;-76
2020/12/18 01:12:34;;;;;;;32.27;24.00;;;3.80;99.90;;;;;;5078618;28;20512;-76
2020/12/18 01:15:00;;;;;;;29.40;22.87;;;3.70;99.90;;;;;;5076637;28;20451;-77
2020/12/18 01:17:27;;;;;;;27.67;21.67;;;3.70;99.90;;;;;;5069467;28;20482;-76
2020/12/18 01:19:54;;;;;;;25.83;21.60;;;3.70;99.90;;;;;;5075122;28;20458;-76
2020/12/18 01:22:20;;;;;;;28.13;20.63;;;3.70;98.10;;;;;;5077801;28;22819;-76
2020/12/18 01:24:47;;;;;;;29.07;22.07;;;3.80;99.90;;;;;;5072090;28;20449;-76
2020/12/18 01:27:14;;;;;;;28.83;20.50;;;3.70;96.40;;;;;;5075438;28;20447;-77
2020/12/18 01:29:40;;;;;;;27.20;21.33;;;3.60;96.90;;;;;;5072479;28;20466;-76
2020/12/18 01:32:07;;;;;;;28.73;21.83;;;3.60;98.50;;;;;;5076370;28;20827;-77
2020/12/18 01:34:38;;;;;;;25.60;19.90;;;3.50;96.70;;;;;;5078383;28;20473;-77
2020/12/18 01:37:04;;;;;;;24.27;19.83;;;3.40;98.20;;;;;;5078861;28;20587;-78
2020/12/18 01:39:31;;;;;;;22.03;18.20;;;3.40;99.70;;;;;;5080417;28;20463;-77
2020/12/18 01:41:57;;;;;;;22.20;17.73;;;3.40;97.90;;;;;;5079416;28;20457;-77
2020/12/18 01:44:24;;;;;;;23.43;19.50;;;3.40;97.40;;;;;;5083068;28;20448;-76
2020/12/18 01:46:51;;;;;;;22.77;19.20;;;3.30;96.10;;;;;;5076950;28;20439;-75
2020/12/18 01:49:17;;;;;;;20.87;17.93;;;3.50;97.80;;;;;;5074092;28;20459;-76
2020/12/18 01:51:45;;;;;;;24.23;18.33;;;3.60;98.20;;;;;;5084899;28;20461;-76
2020/12/18 01:54:13;;;;;;;20.83;17.90;;;3.50;95.20;;;;;;5073274;28;20954;-76
2020/12/18 01:56:41;;;;;;;20.87;16.97;;;3.50;96.20;;;;;;5078501;28;20482;-76
2020/12/18 01:59:07;;;;;;;23.80;18.00;;;3.60;95.90;;;;;;5082783;28;20501;-76
2020/12/18 02:01:35;;;;;;;21.13;18.00;;;3.40;95.10;;;;;;5080909;28;20454;-76
2020/12/18 02:04:02;;;;;;;21.30;18.10;;;3.30;96.20;;;;;;5078818;28;20987;-76
2020/12/18 02:06:31;;;;;;;22.00;18.10;;;3.40;97.60;;;;;;5078271;28;20448;-76
2020/12/18 02:08:58;;;;;;;21.20;17.30;;;3.40;95.80;;;;;;5081589;28;20485;-76
2020/12/18 02:11:25;;;;;;;21.80;16.70;;;3.50;97.70;;;;;;5072620;28;20454;-76
2020/12/18 02:13:52;;;;;;;22.60;16.33;;;3.50;95.80;;;;;;5079372;28;20454;-76
2020/12/18 02:16:19;;;;;;;24.23;18.77;;;3.60;94.70;;;;;;5079543;28;20455;-76
2020/12/18 02:18:46;;;;;;;20.23;18.03;;;3.40;95.30;;;;;;5073228;28;20560;-76
2020/12/18 02:21:13;;;;;;;21.17;17.80;;;3.50;96.40;;;;;;5075880;28;20458;-76
2020/12/18 02:23:40;;;;;;;18.57;15.73;;;3.50;94.70;;;;;;5075640;28;20516;-76
2020/12/18 02:26:09;;;;;;;19.70;16.17;;;3.30;94.20;;;;;;5077921;28;20450;-76
2020/12/18 02:28:37;;;;;;;21.07;17.47;;;3.40;97.20;;;;;;5086219;28;20449;-77
2020/12/18 02:31:04;;;;;;;20.23;16.37;;;3.40;97.30;;;;;;5075203;28;20475;-75
2020/12/18 02:33:30;;;;;;;20.10;16.43;;;3.30;95.60;;;;;;5075795;28;20479;-75
2020/12/18 02:35:58;;;;;;;21.47;16.80;;;3.20;97.90;;;;;;5079019;28;20458;-75
2020/12/18 02:38:25;;;;;;;23.90;17.80;;;3.20;99.10;;;;;;5073236;28;20502;-75
2020/12/18 02:40:55;;;;;;;22.13;17.93;;;3.10;99.20;;;;;;5077761;28;20453;-76
2020/12/18 02:43:22;;;;;;;19.83;17.23;;;3.00;99.90;;;;;;5075156;28;20500;-76
2020/12/18 02:45:49;;;;;;;23.10;18.13;;;2.80;99.90;;;;;;5072722;28;20521;-76
2020/12/18 02:48:16;;;;;;;23.57;18.37;;;2.60;99.90;;;;;;5080907;28;20546;-76
2020/12/18 02:50:42;;;;;;;22.90;17.63;;;2.40;99.90;;;;;;5080296;28;20498;-76
2020/12/18 02:53:13;;;;;;;21.23;17.50;;;2.50;99.90;;;;;;5074817;28;20470;-77
2020/12/18 02:55:40;;;;;;;24.13;18.00;;;2.40;99.90;;;;;;5081337;28;20538;-76
2020/12/18 02:58:07;;;;;;;24.40;17.40;;;2.50;99.90;;;;;;5074001;28;20478;-76
2020/12/18 03:00:35;;;;;;;25.80;18.83;;;2.40;99.90;;;;;;5079977;28;20448;-76
2020/12/18 03:03:04;;;;;;;21.37;17.73;;;2.50;99.90;;;;;;5084869;28;20455;-76
2020/12/18 03:05:31;;;;;;;24.60;18.50;;;2.30;99.90;;;;;;5077318;28;20450;-75
2020/12/18 03:07:58;;;;;;;21.33;18.10;;;2.30;99.90;;;;;;5075858;28;20442;-76
2020/12/18 03:10:24;;;;;;;22.30;17.40;;;2.30;99.90;;;;;;5083711;28;20480;-76
2020/12/18 03:12:51;;;;;;;25.60;19.70;;;2.20;99.90;;;;;;5081856;28;20472;-75
2020/12/18 03:15:17;;;;;;;22.60;18.07;;;2.20;99.90;;;;;;5080474;28;20540;-75
2020/12/18 03:17:45;;;;;;;22.43;17.80;;;2.20;99.90;;;;;;5076115;28;20469;-75
2020/12/18 03:20:11;;;;;;;22.00;17.10;;;2.20;99.90;;;;;;5076183;28;20465;-75
2020/12/18 03:22:38;;;;;;;24.07;17.77;;;2.10;99.90;;;;;;5084990;28;20457;-75
2020/12/18 03:25:05;;;;;;;24.50;18.67;;;2.00;99.90;;;;;;5076761;28;20454;-76
2020/12/18 03:27:33;;;;;;;23.70;18.87;;;1.90;99.90;;;;;;5081139;28;20454;-75
2020/12/18 03:29:59;;;;;;;24.87;19.17;;;1.90;99.90;;;;;;5086794;28;20458;-76
2020/12/18 03:32:26;;;;;;;25.37;19.37;;;1.80;99.90;;;;;;5083163;28;20932;-75
2020/12/18 03:34:53;;;;;;;24.27;19.13;;;1.90;99.90;;;;;;5075110;28;20463;-75
2020/12/18 03:37:19;;;;;;;20.90;17.30;;;1.90;99.90;;;;;;5075371;28;20616;-76
2020/12/18 03:39:46;;;;;;;26.13;18.67;;;2.00;99.90;;;;;;5076895;28;20766;-76
2020/12/18 03:42:12;;;;;;;24.90;18.33;;;2.00;99.90;;;;;;5074534;28;20437;-76
2020/12/18 03:44:39;;;;;;;23.90;17.87;;;2.00;99.90;;;;;;5076933;28;20506;-76
2020/12/18 03:47:09;;;;;;;26.17;19.10;;;2.00;99.90;;;;;;5083850;28;20448;-76
2020/12/18 03:49:36;;;;;;;24.70;18.70;;;2.00;99.90;;;;;;5086026;28;20470;-75
2020/12/18 03:52:03;;;;;;;24.50;18.33;;;2.10;99.90;;;;;;5077005;28;22136;-76
2020/12/18 03:54:30;;;;;;;25.23;18.37;;;2.20;99.90;;;;;;5076512;28;20515;-76
2020/12/18 03:56:56;;;;;;;21.57;17.03;;;2.30;99.90;;;;;;5076207;28;20975;-77
2020/12/18 03:59:22;;;;;;;27.53;19.77;;;2.30;99.90;;;;;;5081040;28;20977;-76
2020/12/18 04:01:51;;;;;;;24.87;18.13;;;2.50;99.90;;;;;;5080737;28;20477;-75
2020/12/18 04:04:17;;;;;;;22.00;17.30;;;2.60;99.90;;;;;;5076628;28;21150;-76
2020/12/18 04:06:43;;;;;;;21.60;18.10;;;2.60;99.90;;;;;;5080812;28;20511;-75
2020/12/18 04:09:11;;;;;;;25.37;18.70;;;2.70;99.90;;;;;;5079455;28;20460;-76
2020/12/18 04:11:37;;;;;;;24.13;17.83;;;2.80;99.90;;;;;;5080227;28;20515;-75
2020/12/18 04:14:04;;;;;;;27.70;19.13;;;2.90;99.90;;;;;;5082858;28;20442;-76
2020/12/18 04:16:30;;;;;;;21.83;17.90;;;2.90;99.90;;;;;;5073201;28;20466;-76
2020/12/18 04:18:56;;;;;;;25.20;18.83;;;2.80;99.90;;;;;;5077765;28;20487;-75
2020/12/18 04:21:23;;;;;;;21.87;17.87;;;2.80;99.90;;;;;;5077203;28;20497;-77
2020/12/18 04:23:49;;;;;;;22.63;17.50;;;2.90;99.90;;;;;;5079515;28;20493;-76
2020/12/18 04:26:18;;;;;;;26.57;18.70;;;3.00;99.90;;;;;;5074671;28;20456;-75
2020/12/18 04:28:44;;;;;;;24.40;18.07;;;3.00;99.90;;;;;;5079538;28;20442;-76
2020/12/18 04:31:11;;;;;;;33.10;19.03;;;3.00;99.90;;;;;;5078489;28;20458;-75
2020/12/18 04:33:38;;;;;;;36.83;19.60;;;3.00;99.90;;;;;;5080229;28;20469;-75
2020/12/18 04:36:04;;;;;;;28.03;18.60;;;3.00;99.90;;;;;;5073557;28;20447;-76
2020/12/18 04:38:31;;;;;;;30.90;18.50;;;3.00;99.90;;;;;;5080064;28;20984;-76
2020/12/18 04:40:57;;;;;;;25.60;19.47;;;3.00;99.90;;;;;;5075284;28;20479;-75
2020/12/18 04:43:25;;;;;;;24.67;17.60;;;3.00;99.90;;;;;;5074806;28;20945;-75
2020/12/18 04:45:56;;;;;;;29.80;18.17;;;3.10;99.90;;;;;;5075082;28;20474;-76
2020/12/18 04:48:26;;;;;;;23.73;18.07;;;3.10;99.90;;;;;;5076876;28;21201;-76
2020/12/18 04:50:57;;;;;;;21.90;15.93;;;3.10;99.90;;;;;;5075595;28;20865;-75
2020/12/18 04:53:26;;;;;;;24.17;17.90;;;3.10;99.90;;;;;;5074151;28;20970;-76
2020/12/18 04:55:54;;;;;;;25.87;17.50;;;3.10;99.90;;;;;;5074585;28;21007;-75
2020/12/18 04:58:22;;;;;;;27.30;19.93;;;3.10;99.90;;;;;;5085059;28;20471;-75
2020/12/18 05:00:56;;;;;;;25.33;18.00;;;3.20;99.90;;;;;;5079930;28;21009;-76
2020/12/18 05:03:23;;;;;;;25.40;19.00;;;3.10;99.90;;;;;;5078441;28;20452;-76
2020/12/18 05:05:49;;;;;;;23.40;17.20;;;3.10;99.90;;;;;;5076044;28;20953;-76
2020/12/18 05:08:16;;;;;;;24.63;17.17;;;3.00;99.90;;;;;;5078416;28;21055;-76
2020/12/18 05:10:42;;;;;;;27.83;18.37;;;2.90;99.90;;;;;;5074088;28;20442;-76
2020/12/18 05:13:09;;;;;;;24.27;17.90;;;3.00;99.90;;;;;;5070693;28;20540;-76
2020/12/18 05:15:35;;;;;;;23.27;17.20;;;3.10;99.90;;;;;;5073284;28;20506;-76
2020/12/18 05:18:05;;;;;;;26.30;18.27;;;3.10;99.90;;;;;;5069237;28;20466;-77
2020/12/18 05:20:31;;;;;;;28.83;18.80;;;3.00;99.90;;;;;;5071747;28;20481;-76
2020/12/18 05:22:58;;;;;;;23.90;17.43;;;3.10;99.90;;;;;;5071805;28;20459;-75
2020/12/18 05:25:24;;;;;;;31.70;17.97;;;2.90;99.90;;;;;;5078734;28;20443;-76
2020/12/18 05:27:51;;;;;;;22.83;16.67;;;2.90;99.90;;;;;;5077840;28;20448;-76
2020/12/18 05:30:22;;;;;;;24.47;17.30;;;3.00;99.90;;;;;;5079629;28;20636;-76
2020/12/18 05:32:52;;;;;;;37.10;18.40;;;3.10;99.90;;;;;;5077437;28;20451;-76
2020/12/18 05:35:22;;;;;;;27.80;17.43;;;2.90;99.90;;;;;;5070932;28;20540;-74
2020/12/18 05:37:50;;;;;;;26.87;17.13;;;2.90;99.90;;;;;;5069626;28;20482;-76
2020/12/18 05:40:18;;;;;;;22.20;16.50;;;2.90;99.90;;;;;;5082246;28;20851;-76
2020/12/18 05:42:45;;;;;;;25.33;16.90;;;3.00;99.90;;;;;;5075339;28;20451;-76
2020/12/18 05:45:16;;;;;;;25.53;17.20;;;3.00;99.90;;;;;;5076482;28;20541;-75
2020/12/18 05:48:03;;;;;;;37.80;17.53;;;3.10;99.90;;;;;;5077119;28;20456;-77
2020/12/18 05:50:32;;;;;;;37.13;16.67;;;3.00;99.90;;;;;;5073820;28;20862;-75
2020/12/18 05:53:01;;;;;;;43.93;18.40;;;3.00;99.90;;;;;;5070033;28;20521;-76
2020/12/18 05:55:37;;;;;;;48.63;17.47;;;2.80;99.90;;;;;;5069761;28;20515;-76
2020/12/18 05:58:04;;;;;;;23.10;17.17;;;2.80;99.90;;;;;;5073518;28;20466;-76
2020/12/18 06:00:31;;;;;;;40.67;16.70;;;2.90;99.90;;;;;;5076937;28;20455;-76
2020/12/18 06:03:00;;;;;;;29.47;16.43;;;2.90;99.90;;;;;;5078790;28;20470;-76
2020/12/18 06:05:27;;;;;;;50.03;18.33;;;2.80;99.90;;;;;;5079239;28;20477;-75
2020/12/18 06:07:55;;;;;;;33.37;17.57;;;2.80;99.90;;;;;;5073609;28;20821;-75
2020/12/18 06:10:24;;;;;;;36.77;18.30;;;2.80;99.90;;;;;;5073919;28;20481;-76
2020/12/18 06:13:01;;;;;;;38.20;17.83;;;2.70;99.90;;;;;;5071512;28;20457;-77
2020/12/18 06:15:28;;;;;;;23.20;16.23;;;2.80;99.90;;;;;;5075309;28;20844;-77
2020/12/18 06:17:55;;;;;;;42.53;17.83;;;2.90;99.90;;;;;;5080715;28;20457;-76
2020/12/18 06:20:22;;;;;;;29.10;18.50;;;2.80;99.90;;;;;;5070806;28;20546;-76
2020/12/18 06:23:00;;;;;;;36.17;17.93;;;2.90;99.90;;;;;;5073088;28;20897;-76
2020/12/18 06:25:41;;;;;;;26.67;16.20;;;2.90;99.90;;;;;;5073800;28;20465;-74
2020/12/18 06:28:07;;;;;;;33.07;16.70;;;2.90;99.90;;;;;;5077415;28;21007;-76
2020/12/18 06:30:33;;;;;;;27.07;16.57;;;2.80;99.90;;;;;;5071498;28;20492;-75
2020/12/18 06:33:00;;;;;;;39.63;17.60;;;2.70;99.90;;;;;;5077438;28;20459;-76
2020/12/18 06:35:31;;;;;;;27.50;17.90;;;2.70;99.90;;;;;;5078766;28;20704;-76
2020/12/18 06:38:19;;;;;;;49.20;17.37;;;2.70;99.90;;;;;;5078692;28;20462;-76
2020/12/18 06:40:46;;;;;;;24.83;16.30;;;2.60;99.90;;;;;;5077456;28;20446;-77
2020/12/18 06:43:13;;;;;;;35.87;16.57;;;2.70;99.90;;;;;;5081174;28;20437;-78
2020/12/18 06:45:40;;;;;;;38.73;16.97;;;2.60;99.90;;;;;;5072354;28;20469;-76
2020/12/18 06:48:27;;;;;;;36.87;15.47;;;2.70;99.90;;;;;;5077711;28;20456;-76
2020/12/18 06:50:54;;;;;;;37.03;17.27;;;2.40;99.90;;;;;;5083835;28;21020;-76
2020/12/18 06:53:21;;;;;;;36.73;15.33;;;2.40;99.90;;;;;;5076996;28;20458;-77
2020/12/18 06:55:47;;;;;;;34.07;13.87;;;2.20;99.90;;;;;;5079726;28;20662;-76
2020/12/18 06:58:17;;;;;;;27.40;14.87;;;2.30;99.90;;;;;;5080321;28;20892;-76
2020/12/18 07:00:45;;;;;;;28.97;13.90;;;2.20;99.90;;;;;;5078342;28;20465;-77
2020/12/18 07:03:32;;;;;;;34.50;15.00;;;2.30;99.90;;;;;;5075778;28;20535;-77
2020/12/18 07:06:02;;;;;;;23.70;13.63;;;2.20;99.90;;;;;;5079584;28;20453;-77
2020/12/18 07:08:30;;;;;;;16.57;12.90;;;2.10;99.90;;;;;;5075412;28;20438;-75
2020/12/18 07:11:01;;;;;;;32.53;13.47;;;2.20;99.90;;;;;;5074749;28;20443;-76
2020/12/18 07:13:29;;;;;;;22.63;14.27;;;2.10;99.90;;;;;;5080792;28;20459;-76
2020/12/18 07:15:59;;;;;;;20.80;13.33;;;2.10;99.90;;;;;;5075641;28;20547;-76
2020/12/18 07:18:28;;;;;;;21.43;15.07;;;2.10;99.90;;;;;;5075674;28;20510;-76
2020/12/18 07:20:56;;;;;;;16.50;12.60;;;2.10;99.90;;;;;;5081943;28;20455;-76
2020/12/18 07:23:24;;;;;;;16.90;12.93;;;2.20;99.90;;;;;;5082182;28;20480;-77
2020/12/18 07:25:51;;;;;;;18.30;12.00;;;2.10;99.90;;;;;;5091536;28;20458;-77
2020/12/18 07:28:19;;;;;;;27.03;13.03;;;2.10;99.90;;;;;;5089676;28;20504;-76
2020/12/18 07:30:50;;;;;;;20.10;13.57;;;2.10;99.90;;;;;;5081778;28;20460;-76
2020/12/18 07:33:18;;;;;;;18.93;13.93;;;2.00;99.90;;;;;;5078303;28;20783;-75
2020/12/18 07:35:46;;;;;;;20.03;12.97;;;2.00;99.90;;;;;;5077354;28;20508;-77
2020/12/18 07:38:17;;;;;;;19.00;13.80;;;2.10;99.90;;;;;;5077228;28;20472;-77
2020/12/18 07:40:44;;;;;;;29.73;15.63;;;2.20;99.90;;;;;;5076814;28;20469;-77
2020/12/18 07:43:12;;;;;;;33.57;13.87;;;2.30;99.90;;;;;;5082972;28;20948;-77
2020/12/18 07:45:44;;;;;;;26.40;14.87;;;2.10;99.90;;;;;;5083094;28;20542;-76
2020/12/18 07:48:12;;;;;;;31.80;13.60;;;2.30;99.90;;;;;;5079727;28;20454;-76
2020/12/18 07:50:38;;;;;;;28.80;14.50;;;2.30;99.90;;;;;;5083881;28;20486;-76
2020/12/18 07:53:10;;;;;;;23.20;12.77;;;2.20;96.30;;;;;;5081693;28;20907;-77
2020/12/18 07:55:39;;;;;;;20.90;13.57;;;2.50;98.40;;;;;;5078200;28;20441;-77
2020/12/18 07:58:05;;;;;;;18.87;13.90;;;2.40;96.70;;;;;;5075176;28;21019;-76
2020/12/18 08:00:32;;;;;;;17.33;11.97;;;2.60;96.50;;;;;;5077164;28;20447;-74
2020/12/18 08:03:02;;;;;;;21.13;12.40;;;2.60;94.40;;;;;;5088436;28;21271;-75
2020/12/18 08:05:28;;;;;;;27.93;14.03;;;2.60;94.10;;;;;;5078706;28;20450;-75
2020/12/18 08:07:58;;;;;;;18.70;11.97;;;2.60;94.20;;;;;;5082600;28;20469;-75
2020/12/18 08:10:25;;;;;;;16.03;11.23;;;2.60;94.20;;;;;;5076670;28;20466;-75
2020/12/18 08:12:52;;;;;;;21.83;12.27;;;2.60;93.30;;;;;;5081729;28;20502;-75
2020/12/18 08:15:18;;;;;;;14.13;11.27;;;2.60;93.80;;;;;;5078257;28;20459;-74
2020/12/18 08:17:45;;;;;;;18.57;12.87;;;2.40;93.40;;;;;;5076208;28;20478;-75
2020/12/18 08:20:14;;;;;;;12.93;10.43;;;2.60;95.00;;;;;;5079808;28;20549;-75
2020/12/18 08:22:44;;;;;;;15.43;11.00;;;2.60;94.10;;;;;;5075289;28;20451;-75
2020/12/18 08:25:14;;;;;;;13.80;11.50;;;2.50;93.40;;;;;;5074637;28;20465;-75
2020/12/18 08:27:46;;;;;;;14.03;11.33;;;2.50;95.50;;;;;;5082981;28;20477;-75
2020/12/18 08:30:26;;;;;;;15.10;11.83;;;2.60;94.40;;;;;;5080898;28;20473;-75
2020/12/18 08:32:55;;;;;;;12.63;10.90;;;2.60;94.00;;;;;;5080112;28;20475;-76
2020/12/18 08:35:23;;;;;;;16.30;12.23;;;2.70;93.70;;;;;;5080208;28;20506;-75
2020/12/18 08:37:51;;;;;;;16.00;12.10;;;2.70;92.60;;;;;;5080646;28;20467;-75
2020/12/18 08:40:20;;;;;;;19.13;12.03;;;2.60;93.80;;;;;;5080525;28;20481;-75
2020/12/18 08:42:59;;;;;;;15.00;11.47;;;2.90;93.00;;;;;;5079806;28;20950;-75
2020/12/18 08:45:26;;;;;;;14.00;11.40;;;3.00;91.90;;;;;;5080488;28;20457;-75
2020/12/18 08:47:53;;;;;;;14.63;12.37;;;3.10;91.80;;;;;;5076068;28;20450;-74
2020/12/18 08:50:20;;;;;;;20.23;14.00;;;3.20;91.50;;;;;;5080462;28;21269;-75
2020/12/18 08:52:47;;;;;;;19.77;13.17;;;3.30;91.50;;;;;;5077299;28;20464;-74
2020/12/18 08:55:15;;;;;;;21.90;13.87;;;3.00;93.00;;;;;;5074793;28;20478;-74
2020/12/18 08:57:41;;;;;;;16.57;12.40;;;3.20;91.60;;;;;;5081613;28;20481;-75
2020/12/18 09:00:15;;;;;;;18.93;13.50;;;3.40;92.10;;;;;;5081740;28;20811;-75
2020/12/18 09:02:46;;;;;;;21.50;14.77;;;3.60;92.10;;;;;;5080710;28;20463;-74
2020/12/18 09:05:23;;;;;;;18.20;13.00;;;3.70;91.50;;;;;;5081325;28;20446;-75
2020/12/18 09:07:58;;;;;;;15.33;12.70;;;3.90;90.90;;;;;;5084521;28;20446;-75
2020/12/18 09:10:37;;;;;;;16.90;12.57;;;3.90;87.70;;;;;;5078210;28;20487;-75
2020/12/18 09:13:25;;;;;;;14.23;11.90;;;3.80;87.20;;;;;;5079520;28;20470;-75
2020/12/18 09:16:04;;;;;;;14.80;11.30;;;3.90;85.40;;;;;;5072982;28;20468;-75
2020/12/18 09:18:32;;;;;;;14.00;11.87;;;3.60;84.40;;;;;;5078263;28;20568;-75
2020/12/18 09:21:13;;;;;;;15.47;12.17;;;3.40;86.50;;;;;;5083979;28;20453;-75
2020/12/18 09:23:41;;;;;;;16.60;12.33;;;3.60;87.60;;;;;;5083219;28;20861;-75
2020/12/18 09:26:08;;;;;;;16.00;12.70;;;3.90;86.30;;;;;;5086213;28;20467;-75
2020/12/18 09:28:39;;;;;;;16.70;13.13;;;3.90;85.60;;;;;;5080175;28;20443;-75
2020/12/18 09:31:07;;;;;;;16.40;12.63;;;4.10;85.90;;;;;;5082923;28;20446;-75
2020/12/18 09:33:36;;;;;;;15.40;12.70;;;4.20;85.50;;;;;;5078174;28;20483;-75
2020/12/18 09:36:10;;;;;;;20.10;13.80;;;4.20;84.90;;;;;;5085203;28;20483;-75
2020/12/18 09:38:39;;;;;;;16.17;13.43;;;4.20;84.60;;;;;;5084082;28;20461;-75
2020/12/18 09:41:10;;;;;;;15.27;13.70;;;4.40;85.40;;;;;;5084965;28;20458;-75
2020/12/18 09:43:40;;;;;;;15.00;13.30;;;4.50;84.80;;;;;;5078208;28;20458;-76
2020/12/18 09:46:11;;;;;;;16.27;14.03;;;4.60;83.90;;;;;;5075939;28;20458;-75
2020/12/18 09:48:38;;;;;;;16.23;14.50;;;4.60;84.00;;;;;;5076153;28;20974;-75
2020/12/18 09:51:04;;;;;;;14.10;12.23;;;4.80;82.90;;;;;;5078634;28;20566;-75
2020/12/18 09:53:32;;;;;;;16.77;13.53;;;4.80;82.50;;;;;;5076622;28;20455;-75
2020/12/18 09:55:59;;;;;;;20.57;13.70;;;4.90;82.00;;;;;;5081007;28;20447;-75
2020/12/18 09:58:26;;;;;;;14.50;13.00;;;4.90;81.60;;;;;;5085463;28;20564;-75
2020/12/18 10:00:55;;;;;;;14.80;12.23;;;5.10;82.00;;;;;;5087925;28;20445;-76
2020/12/18 10:03:22;;;;;;;17.17;12.50;;;5.20;80.90;;;;;;5075217;28;20461;-76
2020/12/18 10:05:49;;;;;;;16.37;12.60;;;5.20;81.10;;;;;;5076298;28;21199;-75
2020/12/18 10:08:16;;;;;;;15.57;13.23;;;5.30;81.00;;;;;;5077634;28;22714;-75
2020/12/18 10:10:46;;;;;;;17.77;12.27;;;5.50;80.30;;;;;;5072032;28;20533;-74
2020/12/18 10:13:14;;;;;;;14.30;11.90;;;5.50;80.30;;;;;;5081275;28;20489;-76
2020/12/18 10:15:41;;;;;;;14.10;11.90;;;5.50;79.80;;;;;;5070940;28;20471;-75
2020/12/18 10:18:09;;;;;;;17.70;13.70;;;5.60;80.00;;;;;;5074932;28;20479;-74
2020/12/18 10:20:35;;;;;;;12.77;11.43;;;5.60;80.40;;;;;;5075054;28;20456;-74
2020/12/18 10:23:02;;;;;;;17.37;14.23;;;5.60;80.50;;;;;;5075298;28;20451;-74
2020/12/18 10:25:29;;;;;;;17.10;13.70;;;5.70;80.50;;;;;;5076549;28;20448;-76
2020/12/18 10:27:58;;;;;;;16.47;13.43;;;5.70;80.40;;;;;;5081453;28;20459;-76
2020/12/18 10:30:25;;;;;;;14.93;13.43;;;5.70;80.90;;;;;;5080381;28;20449;-77
2020/12/18 10:32:52;;;;;;;16.10;14.27;;;5.80;80.90;;;;;;5084495;28;21271;-76
2020/12/18 10:35:19;;;;;;;17.10;15.30;;;5.80;80.70;;;;;;5080501;28;20480;-76
2020/12/18 10:37:47;;;;;;;14.80;13.20;;;5.90;80.90;;;;;;5083048;28;20468;-78
2020/12/18 10:40:15;;;;;;;15.53;13.90;;;6.00;80.80;;;;;;5086761;28;21054;-77
2020/12/18 10:42:42;;;;;;;17.83;15.30;;;6.00;80.20;;;;;;5084418;28;20451;-76
2020/12/18 10:45:10;;;;;;;17.63;15.70;;;6.00;80.60;;;;;;5085419;28;20461;-76
2020/12/18 10:47:37;;;;;;;18.23;14.97;;;6.20;80.50;;;;;;5085098;28;20451;-76
2020/12/18 10:50:04;;;;;;;22.20;16.40;;;6.00;80.10;;;;;;5089677;28;20957;-76
2020/12/18 10:52:32;;;;;;;17.63;15.50;;;6.00;80.70;;;;;;5092947;28;20452;-77
2020/12/18 10:54:58;;;;;;;20.10;16.70;;;6.10;81.00;;;;;;5084670;28;20444;-76
2020/12/18 10:57:25;;;;;;;20.30;16.27;;;6.20;81.20;;;;;;5085605;28;20460;-77
2020/12/18 10:59:52;;;;;;;17.80;15.90;;;6.30;80.60;;;;;;5080895;28;20440;-76
2020/12/18 11:02:24;;;;;;;17.53;15.63;;;6.50;80.20;;;;;;5088265;28;20630;-76
2020/12/18 11:04:53;;;;;;;19.40;15.57;;;6.40;80.10;;;;;;5091601;28;20475;-77
2020/12/18 11:07:21;;;;;;;21.27;16.13;;;6.40;80.30;;;;;;5086442;28;20467;-75
2020/12/18 11:09:48;;;;;;;19.27;16.80;;;6.20;80.30;;;;;;5078606;28;20538;-76
2020/12/18 11:12:15;;;;;;;22.00;16.90;;;6.40;80.70;;;;;;5074381;28;20543;-76
2020/12/18 11:14:42;;;;;;;17.67;15.77;;;6.40;80.30;;;;;;5074322;28;20459;-76
2020/12/18 11:17:08;;;;;;;17.83;15.90;;;6.60;80.00;;;;;;5076197;28;20555;-76
2020/12/18 11:19:37;;;;;;;18.27;16.33;;;6.70;79.90;;;;;;5085443;28;20476;-74
2020/12/18 11:22:04;;;;;;;18.27;15.77;;;6.90;79.50;;;;;;5083716;28;20912;-76
2020/12/18 11:24:31;;;;;;;18.23;16.30;;;7.10;79.10;;;;;;5084338;28;20453;-74
2020/12/18 11:26:58;;;;;;;16.23;14.50;;;7.10;78.80;;;;;;5092742;28;20508;-78
2020/12/18 11:29:25;;;;;;;23.77;18.47;;;7.00;78.90;;;;;;5085949;28;20447;-76
2020/12/18 11:31:54;;;;;;;18.70;16.63;;;7.10;79.00;;;;;;5082084;28;21105;-76
2020/12/18 11:34:25;;;;;;;19.27;16.43;;;7.10;78.90;;;;;;5078248;28;20572;-76
2020/12/18 11:36:53;;;;;;;19.53;15.50;;;6.90;79.10;;;;;;5080475;28;20454;-77
2020/12/18 11:39:22;;;;;;;25.07;17.83;;;7.10;79.10;;;;;;5082167;28;20505;-78
2020/12/18 11:41:49;;;;;;;18.47;15.80;;;7.10;79.00;;;;;;5092374;28;20440;-77
2020/12/18 11:44:15;;;;;;;17.83;16.00;;;7.20;79.00;;;;;;5088610;28;20455;-77
2020/12/18 11:46:42;;;;;;;19.30;16.30;;;7.20;79.00;;;;;;5091601;28;20706;-77
2020/12/18 11:49:09;;;;;;;19.53;17.60;;;7.20;78.90;;;;;;5092702;28;21036;-77
2020/12/18 11:51:36;;;;;;;20.90;18.60;;;7.30;78.90;;;;;;5091080;28;20443;-77
2020/12/18 11:54:03;;;;;;;21.37;17.50;;;7.30;78.80;;;;;;5090467;28;20448;-77
2020/12/18 11:56:30;;;;;;;20.67;17.27;;;7.30;78.90;;;;;;5091867;28;20480;-77
2020/12/18 11:58:59;;;;;;;20.80;18.60;;;7.40;79.00;;;;;;5080728;28;20476;-76
2020/12/18 12:01:28;;;;;;;23.00;18.73;;;7.30;78.90;;;;;;5085677;28;20453;-77
2020/12/18 12:03:57;;;;;;;24.87;19.03;;;7.30;79.00;;;;;;5088210;28;20504;-78
2020/12/18 12:06:24;;;;;;;22.30;19.00;;;7.20;79.00;;;;;;5088531;28;20487;-76
2020/12/18 12:08:51;;;;;;;20.70;18.50;;;7.30;79.30;;;;;;5085401;28;20467;-77
2020/12/18 12:11:19;;;;;;;21.40;17.53;;;7.50;78.90;;;;;;5086068;28;20506;-78
2020/12/18 12:13:46;;;;;;;24.20;18.70;;;7.60;78.60;;;;;;5074408;28;20486;-76
2020/12/18 12:16:14;;;;;;;25.93;19.30;;;7.70;78.60;;;;;;5083133;28;20460;-77
2020/12/18 12:18:41;;;;;;;20.20;18.03;;;7.80;78.40;;;;;;5077230;28;20476;-78
2020/12/18 12:21:07;;;;;;;22.03;19.30;;;7.60;78.10;;;;;;5083102;28;20489;-78
2020/12/18 12:23:34;;;;;;;22.90;18.40;;;7.70;78.30;;;;;;5075921;28;20970;-77
2020/12/18 12:26:03;;;;;;;25.77;19.20;;;7.50;78.40;;;;;;5079801;28;20462;-77
2020/12/18 12:28:32;;;;;;;23.50;19.10;;;7.40;78.60;;;;;;5082929;28;20942;-77
2020/12/18 12:30:59;;;;;;;23.00;19.07;;;7.30;78.90;;;;;;5083640;28;20935;-77
2020/12/18 12:33:26;;;;;;;30.33;20.63;;;7.10;79.30;;;;;;5077955;28;20888;-77
2020/12/18 12:35:53;;;;;;;24.50;20.60;;;7.00;79.60;;;;;;5079597;28;20494;-77
2020/12/18 12:38:19;;;;;;;26.80;20.90;;;6.90;80.10;;;;;;5082575;28;20540;-77
2020/12/18 12:40:50;;;;;;;28.67;22.17;;;6.90;80.40;;;;;;5081283;28;20459;-77